Time;durP1;ratioP1;P1;durP2;ratioP2;P2;SDS_P1;SDS_P2;PMS_P1;PMS_P2;Temp;Humidity;BMP_temperature;BMP_pressure;BME280_temperature;BME280_humidity;BME280_pressure;Samples;Min_cycle;Max_cycle;Signal;HPM_P1;HPM_P2
2022/05/12 00:02:09;;;;;;;11.00;7.50;;;19.00;1.00;;;;;;5067710;28;20464;-81
2022/05/12 00:04:38;;;;;;;9.60;7.53;;;19.00;1.00;;;;;;5065189;28;20468;-80
2022/05/12 00:07:05;;;;;;;8.90;7.73;;;19.00;1.00;;;;;;5064416;28;20464;-80
2022/05/12 00:09:33;;;;;;;8.87;7.97;;;19.00;1.00;;;;;;5064967;28;20545;-80
2022/05/12 00:12:00;;;;;;;9.63;7.97;;;19.00;1.00;;;;;;5067084;28;20984;-79
2022/05/12 00:14:27;;;;;;;9.00;8.10;;;19.00;1.00;;;;;;5062018;28;20466;-80
2022/05/12 00:16:56;;;;;;;9.23;8.20;;;19.10;1.00;;;;;;5063676;28;20459;-80
2022/05/12 00:19:23;;;;;;;9.27;8.10;;;19.10;1.00;;;;;;5064170;28;20455;-79
2022/05/12 00:21:50;;;;;;;8.90;7.37;;;19.10;1.00;;;;;;5066802;28;20493;-78
2022/05/12 00:24:17;;;;;;;9.23;7.10;;;19.10;1.00;;;;;;5066706;28;20529;-80
2022/05/12 00:26:49;;;;;;;8.90;6.77;;;19.10;1.00;;;;;;5065119;28;20491;-79
2022/05/12 00:29:19;;;;;;;7.67;6.50;;;19.00;1.00;;;;;;5063369;28;20517;-77
2022/05/12 00:31:47;;;;;;;8.87;6.87;;;19.00;1.00;;;;;;5063409;28;20502;-79
2022/05/12 00:34:15;;;;;;;8.00;6.53;;;19.00;1.00;;;;;;5069434;28;20419;-79
2022/05/12 00:36:42;;;;;;;8.27;7.00;;;19.00;1.00;;;;;;5066981;28;20498;-78
2022/05/12 00:39:09;;;;;;;7.53;5.90;;;19.00;1.00;;;;;;5068810;28;20513;-83
2022/05/12 00:41:36;;;;;;;8.97;6.77;;;19.00;1.00;;;;;;5066170;28;20475;-82
2022/05/12 00:44:07;;;;;;;8.80;7.23;;;19.00;1.00;;;;;;5068625;28;20517;-83
2022/05/12 00:46:36;;;;;;;8.53;6.07;;;19.10;1.00;;;;;;5067827;28;20419;-82
2022/05/12 00:49:13;;;;;;;9.83;6.77;;;19.10;1.00;;;;;;5066358;28;20865;-80
2022/05/12 00:51:47;;;;;;;9.80;6.40;;;19.20;1.00;;;;;;5066825;28;20463;-79
2022/05/12 00:54:22;;;;;;;6.90;5.70;;;19.20;1.00;;;;;;5070169;28;20481;-79
2022/05/12 00:56:50;;;;;;;7.17;6.43;;;19.30;1.00;;;;;;5067282;28;20509;-80
2022/05/12 00:59:27;;;;;;;13.57;6.97;;;19.30;1.00;;;;;;5068409;28;20452;-78
2022/05/12 01:01:54;;;;;;;9.27;6.43;;;19.30;1.00;;;;;;5065046;28;20533;-79
2022/05/12 01:04:22;;;;;;;8.23;7.00;;;19.30;1.00;;;;;;5063417;28;20509;-78
2022/05/12 01:06:49;;;;;;;7.60;6.43;;;19.40;1.00;;;;;;5071378;28;20551;-82
2022/05/12 01:09:18;;;;;;;7.77;5.60;;;19.40;1.00;;;;;;5048050;28;20545;-80
2022/05/12 01:11:45;;;;;;;7.67;6.87;;;19.50;1.00;;;;;;5066485;28;20483;-80
2022/05/12 01:14:11;;;;;;;7.40;6.23;;;19.50;1.00;;;;;;5068644;28;20768;-81
2022/05/12 01:16:45;;;;;;;8.60;6.67;;;19.40;1.00;;;;;;5072140;28;21007;-80
2022/05/12 01:19:17;;;;;;;7.57;6.40;;;19.40;1.00;;;;;;5067771;28;20487;-80
2022/05/12 01:21:45;;;;;;;9.73;7.67;;;19.40;1.00;;;;;;5063825;28;20435;-80
2022/05/12 01:24:14;;;;;;;9.60;7.13;;;19.40;1.00;;;;;;5069426;28;20490;-79
2022/05/12 01:26:43;;;;;;;8.47;7.53;;;19.40;1.00;;;;;;5062710;28;21009;-80
2022/05/12 01:29:10;;;;;;;8.63;6.43;;;19.40;1.00;;;;;;5064376;28;20454;-81
2022/05/12 01:31:37;;;;;;;7.30;6.10;;;19.40;1.00;;;;;;5066650;28;20531;-79
2022/05/12 01:34:06;;;;;;;8.80;6.90;;;19.40;1.00;;;;;;5064346;28;20557;-79
2022/05/12 01:36:33;;;;;;;11.63;6.83;;;19.40;1.00;;;;;;5063729;28;20463;-81
2022/05/12 01:39:00;;;;;;;10.17;6.83;;;19.40;1.00;;;;;;5066401;28;20463;-80
2022/05/12 01:41:35;;;;;;;11.80;7.57;;;19.30;1.00;;;;;;5070613;28;21008;-79
2022/05/12 01:44:06;;;;;;;8.00;5.40;;;18.90;1.00;;;;;;5071796;28;20442;-80
2022/05/12 01:46:33;;;;;;;13.20;6.93;;;18.20;1.00;;;;;;5072254;28;20542;-79
2022/05/12 01:49:00;;;;;;;7.00;5.80;;;17.70;1.00;;;;;;5070166;28;20459;-80
2022/05/12 01:51:30;;;;;;;10.60;7.00;;;17.30;1.00;;;;;;5073432;28;21012;-78
2022/05/12 01:53:57;;;;;;;10.33;6.27;;;17.10;1.00;;;;;;5073241;28;20475;-78
2022/05/12 01:56:24;;;;;;;7.43;6.60;;;16.90;1.00;;;;;;5073921;28;20903;-78
2022/05/12 01:58:52;;;;;;;8.77;7.30;;;16.80;1.00;;;;;;5074230;28;20404;-79
2022/05/12 02:01:19;;;;;;;8.60;7.27;;;16.80;1.00;;;;;;5072416;28;20425;-78
2022/05/12 02:03:47;;;;;;;8.57;7.00;;;16.70;1.00;;;;;;5072571;28;20560;-77
2022/05/12 02:06:14;;;;;;;11.67;7.30;;;16.60;1.00;;;;;;5072210;28;21669;-76
2022/05/12 02:08:41;;;;;;;7.90;7.10;;;16.50;1.00;;;;;;5066946;28;20463;-78
2022/05/12 02:11:07;;;;;;;7.97;7.17;;;16.40;1.00;;;;;;5071636;28;20569;-79
2022/05/12 02:13:34;;;;;;;9.93;7.17;;;16.40;1.00;;;;;;5073587;28;20500;-80
2022/05/12 02:16:02;;;;;;;12.60;8.47;;;16.30;1.00;;;;;;5072478;28;20451;-78
2022/05/12 02:18:29;;;;;;;9.53;7.43;;;16.30;1.00;;;;;;5065866;28;20412;-78
2022/05/12 02:20:58;;;;;;;9.80;7.67;;;16.30;1.00;;;;;;5071382;28;20470;-79
2022/05/12 02:23:28;;;;;;;7.37;6.57;;;16.30;1.00;;;;;;5072896;28;21235;-80
2022/05/12 02:25:55;;;;;;;7.97;7.07;;;16.30;1.00;;;;;;5071386;28;21348;-79
2022/05/12 02:28:22;;;;;;;7.53;6.73;;;16.20;1.00;;;;;;5068069;28;21343;-80
2022/05/12 02:30:49;;;;;;;8.13;6.80;;;16.20;1.00;;;;;;5072760;28;20513;-79
2022/05/12 02:33:17;;;;;;;8.30;7.13;;;16.20;1.00;;;;;;5073577;28;20403;-79
2022/05/12 02:35:44;;;;;;;9.67;6.90;;;16.20;1.00;;;;;;5069766;28;20479;-79
2022/05/12 02:38:12;;;;;;;9.43;7.23;;;16.20;1.00;;;;;;5075321;28;20410;-79
2022/05/12 02:40:39;;;;;;;13.23;8.00;;;16.20;1.00;;;;;;5072542;28;20457;-77
2022/05/12 02:43:23;;;;;;;11.00;8.03;;;16.00;1.00;;;;;;5073699;28;20447;-78
2022/05/12 02:45:50;;;;;;;13.50;8.30;;;15.90;1.00;;;;;;5071826;28;20470;-78
2022/05/12 02:48:18;;;;;;;14.10;8.43;;;15.80;1.00;;;;;;5070098;28;21201;-78
2022/05/12 02:50:50;;;;;;;13.20;9.40;;;15.80;1.00;;;;;;5070320;28;20892;-79
2022/05/12 02:53:18;;;;;;;13.40;9.33;;;15.70;1.00;;;;;;5069628;28;20489;-80
2022/05/12 02:55:44;;;;;;;12.90;9.30;;;15.60;1.00;;;;;;5069151;28;20522;-81
2022/05/12 02:58:11;;;;;;;11.73;9.20;;;15.50;1.00;;;;;;5071398;28;21257;-81
2022/05/12 03:00:38;;;;;;;12.97;9.97;;;15.40;1.00;;;;;;5073832;28;20477;-78
2022/05/12 03:03:07;;;;;;;13.27;9.60;;;15.40;1.00;;;;;;5062136;28;20482;-78
2022/05/12 03:05:38;;;;;;;11.40;9.50;;;15.30;1.00;;;;;;5066243;28;20534;-80
2022/05/12 03:08:06;;;;;;;10.83;8.60;;;15.30;1.00;;;;;;5061015;28;20471;-80
2022/05/12 03:10:34;;;;;;;10.03;8.60;;;15.30;1.00;;;;;;5067958;28;20459;-79
2022/05/12 03:13:02;;;;;;;9.53;8.03;;;15.20;1.00;;;;;;5065989;28;20954;-79
2022/05/12 03:15:28;;;;;;;9.50;8.00;;;15.20;1.00;;;;;;5067188;28;20436;-78
2022/05/12 03:17:55;;;;;;;9.07;8.03;;;15.20;1.00;;;;;;5066779;28;20533;-79
2022/05/12 03:20:26;;;;;;;10.30;9.30;;;15.20;1.00;;;;;;5065206;28;20515;-79
2022/05/12 03:22:54;;;;;;;9.00;8.20;;;15.10;1.00;;;;;;5066836;28;20960;-81
2022/05/12 03:25:22;;;;;;;11.13;8.90;;;15.10;1.00;;;;;;5063055;28;20455;-80
2022/05/12 03:27:49;;;;;;;10.20;8.70;;;15.10;1.00;;;;;;5066486;28;20463;-78
2022/05/12 03:30:20;;;;;;;13.80;8.93;;;15.10;1.00;;;;;;5066746;28;20590;-79
2022/05/12 03:32:47;;;;;;;10.73;8.50;;;15.10;1.00;;;;;;5071029;28;21038;-80
2022/05/12 03:35:14;;;;;;;13.33;8.90;;;15.10;1.00;;;;;;5066494;28;20483;-77
2022/05/12 03:37:43;;;;;;;11.17;10.00;;;15.10;1.00;;;;;;5066590;28;20467;-77
2022/05/12 03:40:13;;;;;;;8.63;7.73;;;15.00;1.00;;;;;;5065714;28;20596;-78
2022/05/12 03:42:40;;;;;;;9.00;7.90;;;15.10;1.00;;;;;;5068418;28;20937;-79
2022/05/12 03:45:10;;;;;;;9.30;8.40;;;15.00;1.00;;;;;;5068115;28;20424;-80
2022/05/12 03:47:39;;;;;;;11.60;9.03;;;15.00;1.00;;;;;;5067336;28;20451;-80
2022/05/12 03:50:09;;;;;;;8.27;7.57;;;15.00;1.00;;;;;;5067951;28;20979;-79
2022/05/12 03:52:38;;;;;;;11.87;8.93;;;15.00;1.00;;;;;;5060816;28;21051;-80
2022/05/12 03:55:06;;;;;;;9.63;8.73;;;15.00;1.00;;;;;;5072213;28;20467;-80
2022/05/12 03:57:35;;;;;;;9.70;7.37;;;15.00;1.00;;;;;;5065092;28;20466;-81
2022/05/12 04:00:03;;;;;;;9.60;7.80;;;15.00;1.00;;;;;;5068748;28;20799;-81
2022/05/12 04:02:30;;;;;;;8.00;7.30;;;15.00;1.00;;;;;;5067196;28;20458;-81
2022/05/12 04:04:56;;;;;;;10.93;7.17;;;15.00;1.00;;;;;;5067350;28;20986;-80
2022/05/12 04:07:23;;;;;;;8.97;7.20;;;15.00;1.00;;;;;;5068916;28;20479;-81
2022/05/12 04:09:51;;;;;;;8.60;7.23;;;14.90;1.00;;;;;;5068478;28;20436;-81
2022/05/12 04:12:21;;;;;;;8.27;7.47;;;14.90;1.00;;;;;;5064833;28;20529;-81
2022/05/12 04:14:49;;;;;;;8.30;7.50;;;14.90;1.00;;;;;;5068049;28;20468;-81
2022/05/12 04:17:17;;;;;;;7.73;7.03;;;15.00;1.00;;;;;;5066817;28;20467;-84
2022/05/12 04:19:44;;;;;;;8.93;8.13;;;15.00;1.00;;;;;;5067217;28;21903;-79
2022/05/12 04:22:11;;;;;;;8.00;7.20;;;14.90;1.00;;;;;;5065444;28;20450;-80
2022/05/12 04:24:38;;;;;;;11.57;8.30;;;15.00;1.00;;;;;;5063661;28;20474;-78
2022/05/12 04:27:06;;;;;;;7.17;6.47;;;15.00;1.00;;;;;;5068902;28;20508;-82
2022/05/12 04:29:37;;;;;;;12.97;7.17;;;15.00;1.00;;;;;;5067528;28;20501;-79
2022/05/12 04:32:07;;;;;;;7.77;6.97;;;15.00;1.00;;;;;;5066160;28;20473;-79
2022/05/12 04:37:18;;;;;;;8.53;5.77;;;15.00;1.00;;;;;;5065355;28;20566;-81
2022/05/12 04:39:46;;;;;;;8.03;6.47;;;15.00;1.00;;;;;;5064585;28;20464;-79
2022/05/12 04:42:13;;;;;;;7.20;6.47;;;15.00;1.00;;;;;;5057314;28;20640;-79
2022/05/12 04:44:40;;;;;;;7.90;6.13;;;15.00;1.00;;;;;;5059516;28;20570;-79
2022/05/12 04:47:09;;;;;;;8.33;6.77;;;15.00;1.00;;;;;;5046146;28;20522;-81
2022/05/12 04:49:37;;;;;;;8.67;5.70;;;14.90;1.00;;;;;;5046469;28;20512;-81
2022/05/12 04:52:05;;;;;;;8.87;6.20;;;14.90;1.00;;;;;;5055780;28;22467;-84
2022/05/12 04:54:33;;;;;;;10.63;6.37;;;14.80;1.00;;;;;;5054972;28;20643;-80
2022/05/12 04:57:05;;;;;;;7.07;5.40;;;14.80;1.00;;;;;;5058199;28;20455;-82
2022/05/12 04:59:33;;;;;;;6.40;5.73;;;14.90;1.00;;;;;;5050365;28;20461;-81
2022/05/12 05:02:03;;;;;;;5.60;4.83;;;14.90;1.00;;;;;;5056794;28;21313;-80
2022/05/12 05:04:32;;;;;;;7.00;4.83;;;14.90;1.00;;;;;;5056938;28;20428;-82
2022/05/12 05:07:03;;;;;;;6.00;5.13;;;14.90;1.00;;;;;;5041381;28;21319;-81
2022/05/12 05:09:30;;;;;;;7.67;4.10;;;15.00;1.00;;;;;;5052455;28;20556;-82
2022/05/12 05:11:57;;;;;;;5.00;4.40;;;15.00;1.00;;;;;;5048967;28;20905;-80
2022/05/12 05:14:24;;;;;;;5.63;5.10;;;15.00;1.00;;;;;;5052987;28;21423;-79
2022/05/12 05:16:53;;;;;;;5.73;4.90;;;15.20;1.00;;;;;;5054327;28;20431;-80
2022/05/12 05:19:20;;;;;;;9.13;5.63;;;15.20;1.00;;;;;;5054256;28;20427;-81
2022/05/12 05:21:48;;;;;;;6.90;5.07;;;15.20;1.00;;;;;;5054944;28;20467;-79
2022/05/12 05:24:15;;;;;;;5.23;4.47;;;15.20;1.00;;;;;;5049403;28;20450;-78
2022/05/12 05:26:42;;;;;;;4.90;4.40;;;15.30;1.00;;;;;;5044538;28;20472;-79
2022/05/12 05:29:10;;;;;;;7.63;4.57;;;15.30;1.00;;;;;;5055177;28;20863;-80
2022/05/12 05:31:37;;;;;;;6.20;4.80;;;15.30;1.00;;;;;;5054065;28;20958;-82
2022/05/12 05:34:04;;;;;;;7.70;4.37;;;15.40;1.00;;;;;;5055202;28;20525;-81
2022/05/12 05:36:31;;;;;;;4.60;4.10;;;15.50;1.00;;;;;;5053471;28;20454;-81
2022/05/12 05:38:59;;;;;;;4.20;3.30;;;15.60;1.00;;;;;;5058629;28;20479;-80
2022/05/12 05:41:28;;;;;;;8.27;4.60;;;15.70;1.00;;;;;;5059492;28;20558;-81
2022/05/12 05:43:55;;;;;;;5.00;3.60;;;15.80;1.00;;;;;;5061174;28;20432;-82
2022/05/12 05:46:23;;;;;;;3.50;3.00;;;15.90;1.00;;;;;;5055140;28;20463;-81
2022/05/12 05:48:51;;;;;;;3.90;3.47;;;15.80;1.00;;;;;;5057471;28;20479;-83
2022/05/12 05:54:06;;;;;;;3.10;2.50;;;15.60;1.00;;;;;;5064407;28;20617;-82
2022/05/12 05:56:37;;;;;;;5.73;3.00;;;15.60;1.00;;;;;;5052390;28;20454;-81
2022/05/12 05:59:06;;;;;;;3.10;2.07;;;15.60;1.00;;;;;;5062433;28;20446;-81
2022/05/12 06:01:33;;;;;;;2.50;2.13;;;15.60;1.00;;;;;;5059518;28;20467;-81
2022/05/12 06:04:02;;;;;;;5.50;2.60;;;15.70;1.00;;;;;;5053976;28;20511;-80
2022/05/12 06:06:30;;;;;;;4.20;2.03;;;15.70;1.00;;;;;;5068848;28;20505;-81
2022/05/12 06:09:00;;;;;;;3.33;2.30;;;15.80;1.00;;;;;;5065104;28;20531;-81
2022/05/12 06:11:28;;;;;;;5.33;2.40;;;15.80;1.00;;;;;;5057448;28;20545;-81
2022/05/12 06:13:55;;;;;;;3.07;2.20;;;15.90;1.00;;;;;;5055618;28;20549;-80
2022/05/12 06:16:28;;;;;;;3.63;2.37;;;15.90;1.00;;;;;;5062015;28;20419;-78
2022/05/12 06:18:57;;;;;;;3.50;1.93;;;15.90;1.00;;;;;;5064201;28;20466;-80
2022/05/12 06:21:26;;;;;;;3.10;2.20;;;16.00;1.00;;;;;;5055714;28;20451;-80
2022/05/12 06:23:58;;;;;;;6.53;2.73;;;16.00;1.00;;;;;;5064744;28;20431;-78
2022/05/12 06:26:25;;;;;;;3.70;3.20;;;16.10;1.00;;;;;;5052266;28;20875;-81
2022/05/12 06:52:35;;;;;;;3.73;1.87;;;16.70;1.00;;;;;;5065455;28;20477;-82
2022/05/12 06:55:04;;;;;;;2.97;1.87;;;16.60;1.00;;;;;;5065676;28;20430;-81
2022/05/12 06:57:33;;;;;;;3.70;1.77;;;16.70;1.00;;;;;;5065608;28;20436;-82
2022/05/12 07:00:05;;;;;;;5.73;2.10;;;16.80;1.00;;;;;;5069590;28;20439;-83
2022/05/12 07:02:33;;;;;;;4.20;1.80;;;16.90;1.00;;;;;;5064028;28;20412;-84
2022/05/12 07:05:08;;;;;;;1.87;1.60;;;16.90;1.00;;;;;;5075000;28;20439;-80
2022/05/12 07:07:38;;;;;;;3.77;1.87;;;17.00;1.00;;;;;;5081221;28;20466;-80
2022/05/12 07:10:14;;;;;;;3.10;1.30;;;17.00;1.00;;;;;;5077160;28;20459;-80
2022/05/12 07:12:47;;;;;;;3.90;1.47;;;16.80;1.00;;;;;;5077566;28;20431;-79
2022/05/12 07:15:17;;;;;;;3.37;1.70;;;16.60;1.00;;;;;;5078771;28;20468;-81
2022/05/12 07:17:54;;;;;;;6.50;2.00;;;16.60;1.00;;;;;;5079261;28;20430;-80
2022/05/12 07:28:48;;;;;;;4.90;2.20;;;16.80;1.00;;;;;;5078008;28;20458;-78
2022/05/12 07:31:24;;;;;;;1.60;1.50;;;16.80;1.00;;;;;;5077450;28;20513;-80
2022/05/12 07:33:54;;;;;;;2.60;1.70;;;16.90;1.00;;;;;;5078253;28;20416;-80
2022/05/12 07:36:26;;;;;;;3.13;1.50;;;16.90;1.00;;;;;;5078523;28;20408;-79
2022/05/12 07:39:02;;;;;;;3.13;2.17;;;17.00;1.00;;;;;;5078927;28;20234;-80
2022/05/12 07:41:34;;;;;;;2.80;1.50;;;17.30;1.00;;;;;;5078135;28;20434;-80
2022/05/12 07:44:04;;;;;;;2.77;1.23;;;17.60;1.00;;;;;;5077413;28;20529;-79
2022/05/12 07:46:33;;;;;;;2.43;1.33;;;17.70;1.00;;;;;;5075537;28;20479;-81
2022/05/12 07:49:04;;;;;;;2.03;1.17;;;17.70;1.00;;;;;;5076795;28;20424;-78
2022/05/12 07:51:34;;;;;;;1.20;0.90;;;17.60;1.00;;;;;;5077476;28;20421;-79
2022/05/12 07:54:05;;;;;;;1.93;1.30;;;17.50;1.00;;;;;;5075803;28;20548;-81
2022/05/12 07:56:33;;;;;;;1.30;0.80;;;17.50;1.00;;;;;;5073684;28;20436;-78
2022/05/12 07:59:04;;;;;;;2.53;1.53;;;17.50;1.00;;;;;;5079862;28;20462;-80
2022/05/12 08:01:39;;;;;;;1.80;1.13;;;17.80;1.00;;;;;;5079102;28;20430;-78
2022/05/12 08:04:06;;;;;;;2.40;0.90;;;17.80;1.00;;;;;;5077587;28;20451;-81
2022/05/12 08:06:34;;;;;;;2.97;1.37;;;17.60;1.00;;;;;;5077006;28;20469;-79
2022/05/12 08:09:05;;;;;;;1.70;1.17;;;17.60;1.00;;;;;;5076639;28;20684;-79
2022/05/12 08:11:33;;;;;;;4.97;1.83;;;17.50;1.00;;;;;;5079497;28;20424;-80
2022/05/12 08:14:04;;;;;;;4.77;1.60;;;17.30;1.00;;;;;;5075591;28;20507;-78
2022/05/12 08:16:34;;;;;;;3.70;1.40;;;17.20;1.00;;;;;;5076129;28;20424;-77
2022/05/12 08:19:04;;;;;;;3.40;1.43;;;17.10;1.00;;;;;;5074155;28;20909;-79
2022/05/12 08:21:33;;;;;;;2.37;1.20;;;17.00;1.00;;;;;;5077671;28;20420;-80
2022/05/12 08:24:06;;;;;;;3.40;1.40;;;16.90;1.00;;;;;;5077204;28;20590;-81
2022/05/12 08:26:34;;;;;;;2.43;1.23;;;16.90;1.00;;;;;;5076369;28;20433;-79
2022/05/12 08:29:00;;;;;;;5.40;1.63;;;17.00;1.00;;;;;;5070167;28;20577;-81
2022/05/12 08:31:30;;;;;;;4.87;1.27;;;17.10;1.00;;;;;;5068420;28;20464;-78
2022/05/12 08:33:57;;;;;;;4.70;3.00;;;17.30;1.00;;;;;;5071705;28;20462;-77
2022/05/12 08:36:27;;;;;;;2.47;1.20;;;17.40;1.00;;;;;;5077587;28;20456;-78
2022/05/12 08:38:55;;;;;;;3.63;1.27;;;17.60;1.00;;;;;;5078919;28;20463;-78
2022/05/12 08:41:43;;;;;;;2.63;1.13;;;17.80;1.00;;;;;;5076203;28;20439;-82
2022/05/12 08:44:15;;;;;;;2.80;1.40;;;18.00;1.00;;;;;;5076646;28;20415;-78
2022/05/12 08:46:53;;;;;;;3.80;1.60;;;17.80;1.00;;;;;;5077440;28;20535;-78
2022/05/12 08:49:35;;;;;;;2.60;1.20;;;17.60;1.00;;;;;;5073223;28;20443;-79
2022/05/12 08:52:14;;;;;;;3.90;1.13;;;17.60;1.00;;;;;;5079551;28;20483;-78
2022/05/12 08:54:47;;;;;;;3.07;1.30;;;18.00;1.00;;;;;;5075905;28;20424;-79
2022/05/12 08:57:32;;;;;;;2.50;1.50;;;18.20;1.00;;;;;;5079103;28;20459;-78
2022/05/12 09:00:06;;;;;;;4.33;1.27;;;18.40;1.00;;;;;;5076269;28;20448;-80
2022/05/12 09:02:50;;;;;;;3.50;1.30;;;18.60;1.00;;;;;;5076345;28;20419;-79
2022/05/12 09:05:30;;;;;;;5.23;1.70;;;18.50;1.00;;;;;;5078102;28;20484;-80
2022/05/12 09:08:15;;;;;;;2.83;1.77;;;18.40;1.00;;;;;;5078784;28;20497;-78
2022/05/12 09:11:04;;;;;;;2.73;1.23;;;18.30;1.00;;;;;;5080545;28;20414;-78
2022/05/12 09:13:42;;;;;;;9.90;3.30;;;18.20;1.00;;;;;;5082511;28;20462;-79
2022/05/12 09:16:16;;;;;;;4.10;1.53;;;18.40;1.00;;;;;;5074612;28;20449;-80
2022/05/12 09:18:44;;;;;;;4.77;1.43;;;18.60;1.00;;;;;;5076034;28;20439;-79
2022/05/12 09:21:23;;;;;;;3.60;1.50;;;19.00;1.00;;;;;;5072998;28;20464;-78
2022/05/12 09:23:54;;;;;;;4.37;1.67;;;19.90;1.00;;;;;;5074069;28;20910;-79
2022/05/12 09:26:37;;;;;;;5.97;1.47;;;20.70;1.00;;;;;;5076658;28;20428;-80
2022/05/12 09:29:27;;;;;;;3.40;1.50;;;21.00;1.00;;;;;;5074936;28;20479;-79
2022/05/12 09:32:01;;;;;;;5.87;1.60;;;21.50;1.00;;;;;;5075989;28;20455;-80
2022/05/12 09:34:46;;;;;;;5.40;1.20;;;22.40;1.00;;;;;;5071431;28;20523;-79
2022/05/12 09:37:24;;;;;;;3.40;1.40;;;22.80;1.00;;;;;;5076983;28;20427;-80
2022/05/12 09:39:54;;;;;;;4.63;2.43;;;22.10;1.00;;;;;;5074325;28;20482;-77
2022/05/12 09:42:45;;;;;;;4.50;1.40;;;22.30;1.00;;;;;;5076651;28;20451;-78
2022/05/12 09:45:34;;;;;;;6.37;2.30;;;22.10;1.00;;;;;;5075152;28;20581;-79
2022/05/12 09:48:23;;;;;;;4.83;1.60;;;22.10;1.00;;;;;;5074055;28;20443;-78
2022/05/12 09:50:54;;;;;;;5.00;1.60;;;22.10;1.00;;;;;;5080419;28;20547;-78
2022/05/12 09:56:27;;;;;;;4.50;1.40;;;23.20;1.00;;;;;;5073296;28;20470;-77
2022/05/12 09:59:13;;;;;;;4.57;1.47;;;22.90;1.00;;;;;;5080690;28;20509;-79
2022/05/12 10:01:57;;;;;;;4.53;1.10;;;23.60;1.00;;;;;;5079670;28;20507;-78
2022/05/12 10:10:22;;;;;;;8.57;1.67;;;24.40;1.00;;;;;;5075211;28;20419;-80
2022/05/12 10:13:04;;;;;;;6.20;1.90;;;23.10;1.00;;;;;;5075841;28;20431;-79
2022/05/12 10:15:37;;;;;;;6.20;2.63;;;22.20;1.00;;;;;;5079055;28;20459;-78
2022/05/12 10:18:17;;;;;;;6.40;2.13;;;23.30;1.00;;;;;;5079943;28;20487;-77
2022/05/12 10:20:52;;;;;;;5.43;1.83;;;25.00;1.00;;;;;;5081463;28;20585;-79
2022/05/12 10:23:43;;;;;;;7.50;1.40;;;26.00;1.00;;;;;;5080845;28;20461;-78
2022/05/12 10:26:17;;;;;;;5.30;1.30;;;26.90;1.00;;;;;;5083536;28;20416;-79
2022/05/12 10:29:13;;;;;;;5.47;1.43;;;28.00;1.00;;;;;;5076548;28;20431;-80
2022/05/12 10:31:55;;;;;;;6.10;2.03;;;26.50;1.00;;;;;;5077562;28;20415;-80
2022/05/12 10:34:53;;;;;;;5.87;1.70;;;25.60;1.00;;;;;;5077600;28;20422;-78
2022/05/12 10:37:44;;;;;;;5.17;1.30;;;25.50;1.00;;;;;;5081255;28;20424;-78
2022/05/12 10:40:27;;;;;;;4.77;1.50;;;24.70;1.00;;;;;;5059786;28;20630;-78
2022/05/12 10:43:17;;;;;;;4.70;1.07;;;24.10;1.00;;;;;;5080074;28;20423;-78
2022/05/12 10:45:59;;;;;;;5.43;1.33;;;25.40;1.00;;;;;;5082326;28;20442;-79
2022/05/12 10:48:44;;;;;;;4.80;1.00;;;27.00;1.00;;;;;;5082665;28;20505;-79
2022/05/12 10:51:34;;;;;;;5.60;1.73;;;27.10;1.00;;;;;;5075256;28;20436;-77
2022/05/12 10:54:24;;;;;;;6.03;1.20;;;27.10;1.00;;;;;;5086521;28;20430;-77
2022/05/12 10:57:04;;;;;;;5.93;1.40;;;26.60;1.00;;;;;;5076115;28;20513;-78
2022/05/12 10:59:54;;;;;;;6.10;1.50;;;26.00;1.00;;;;;;5078028;28;20477;-77
2022/05/12 11:02:43;;;;;;;4.70;1.37;;;26.80;1.00;;;;;;5076573;28;20431;-78
2022/05/12 11:05:26;;;;;;;6.60;2.03;;;27.00;1.00;;;;;;5078684;28;20471;-80
2022/05/12 11:08:04;;;;;;;6.37;1.50;;;27.30;1.00;;;;;;5083345;28;20435;-78
2022/05/12 11:10:44;;;;;;;5.17;1.20;;;26.70;1.00;;;;;;5081932;28;20534;-79
2022/05/12 11:13:23;;;;;;;6.90;1.47;;;26.00;1.00;;;;;;5062502;28;20407;-77
2022/05/12 11:16:02;;;;;;;4.93;1.30;;;26.60;1.00;;;;;;5078077;28;20418;-77
2022/05/12 11:18:37;;;;;;;6.33;1.30;;;27.40;1.00;;;;;;5080890;28;20539;-79
2022/05/12 11:21:25;;;;;;;6.00;1.33;;;27.30;1.00;;;;;;5075312;28;20673;-79
2022/05/12 11:24:14;;;;;;;5.03;1.30;;;27.50;1.00;;;;;;5079773;28;20645;-79
2022/05/12 11:27:01;;;;;;;6.80;1.40;;;28.20;1.00;;;;;;5080617;28;20436;-81
2022/05/12 11:29:45;;;;;;;5.57;1.30;;;27.30;1.00;;;;;;5081751;28;20558;-78
2022/05/12 11:32:28;;;;;;;6.20;1.30;;;26.20;1.00;;;;;;5077263;28;20431;-79
2022/05/12 11:35:01;;;;;;;6.40;1.47;;;25.80;1.00;;;;;;5076188;28;20945;-80
2022/05/12 11:37:35;;;;;;;6.60;3.73;;;25.60;1.00;;;;;;5073447;28;20469;-79
2022/05/12 11:40:09;;;;;;;5.30;1.43;;;26.70;1.00;;;;;;5076508;28;20424;-78
2022/05/12 11:45:56;;;;;;;5.87;1.33;;;28.00;1.00;;;;;;5075269;28;20466;-77
2022/05/12 11:48:37;;;;;;;5.90;1.17;;;27.20;1.00;;;;;;5078996;28;20431;-79
2022/05/12 11:51:34;;;;;;;5.80;1.80;;;26.40;1.00;;;;;;5077775;28;20454;-81
2022/05/12 11:54:07;;;;;;;6.70;2.13;;;26.70;1.00;;;;;;5076361;28;20416;-79
2022/05/12 11:56:57;;;;;;;5.90;1.30;;;27.60;1.00;;;;;;5083753;28;20436;-79
2022/05/12 11:59:46;;;;;;;5.03;1.00;;;27.80;1.00;;;;;;5077555;28;20581;-81
2022/05/12 12:02:54;;;;;;;11.73;1.83;;;27.00;1.00;;;;;;5072648;28;20431;-77
2022/05/12 12:05:58;;;;;;;5.80;1.33;;;26.80;1.00;;;;;;5070340;28;20455;-79
2022/05/12 12:08:45;;;;;;;6.50;1.80;;;26.60;1.00;;;;;;5073103;28;20477;-80
2022/05/12 12:11:33;;;;;;;7.53;2.00;;;25.40;1.00;;;;;;5076504;28;20438;-80
2022/05/12 12:14:34;;;;;;;5.10;1.30;;;25.00;1.00;;;;;;5081173;28;20445;-81
2022/05/12 12:17:19;;;;;;;6.30;1.40;;;26.30;1.00;;;;;;5076370;28;20436;-78
2022/05/12 12:19:52;;;;;;;6.13;1.20;;;26.30;1.00;;;;;;5076019;28;20475;-78
2022/05/12 12:22:46;;;;;;;5.90;1.70;;;25.20;1.00;;;;;;5079136;28;20432;-78
2022/05/12 12:25:36;;;;;;;4.77;1.30;;;24.40;1.00;;;;;;5073009;28;20435;-79
2022/05/12 12:28:29;;;;;;;6.87;1.90;;;24.40;1.00;;;;;;5077849;28;20468;-78
2022/05/12 12:31:12;;;;;;;5.47;1.43;;;25.70;1.00;;;;;;5079783;28;20420;-79
2022/05/12 12:34:08;;;;;;;5.93;1.47;;;25.00;1.00;;;;;;5078710;28;20422;-79
2022/05/12 12:37:00;;;;;;;6.37;1.60;;;24.20;1.00;;;;;;5076423;28;20522;-78
2022/05/12 12:39:45;;;;;;;4.87;1.40;;;23.30;1.00;;;;;;5076787;28;20490;-78
2022/05/12 12:42:44;;;;;;;5.17;1.60;;;22.80;1.00;;;;;;5077772;28;20489;-80
2022/05/12 12:45:18;;;;;;;4.30;1.40;;;22.40;1.00;;;;;;5076333;28;20479;-78
2022/05/12 12:47:58;;;;;;;5.83;1.70;;;22.20;1.00;;;;;;5078425;28;20420;-79
2022/05/12 12:50:47;;;;;;;5.60;1.60;;;24.50;1.00;;;;;;5076964;28;20422;-78
2022/05/12 12:56:36;;;;;;;5.50;1.40;;;28.60;1.00;;;;;;5078841;28;20551;-79
2022/05/12 12:59:14;;;;;;;7.87;1.37;;;29.20;1.00;;;;;;5081261;28;20446;-80
2022/05/12 13:01:50;;;;;;;6.07;1.47;;;27.60;1.00;;;;;;5076304;28;20450;-79
2022/05/12 13:04:25;;;;;;;4.70;1.30;;;25.70;1.00;;;;;;5077394;28;20585;-80
2022/05/12 13:06:57;;;;;;;5.97;1.30;;;24.70;1.00;;;;;;5081853;28;20443;-79
2022/05/12 13:09:34;;;;;;;5.50;1.40;;;26.00;1.00;;;;;;5073406;28;20484;-79
2022/05/12 13:12:15;;;;;;;5.70;1.20;;;26.30;1.00;;;;;;5074311;28;20431;-78
2022/05/12 13:14:44;;;;;;;5.10;1.30;;;25.60;1.00;;;;;;5070336;28;20621;-80
2022/05/12 13:17:28;;;;;;;4.67;1.00;;;25.00;1.00;;;;;;5072175;28;20443;-80
2022/05/12 13:19:58;;;;;;;5.20;1.20;;;26.70;1.00;;;;;;5073228;28;20495;-80
2022/05/12 13:22:34;;;;;;;5.60;1.60;;;27.60;1.00;;;;;;5077761;28;22072;-79
2022/05/12 13:25:05;;;;;;;5.87;1.50;;;27.90;1.00;;;;;;5074855;28;20431;-80
2022/05/12 13:27:38;;;;;;;5.50;1.10;;;30.00;1.00;;;;;;5071364;28;20423;-80
2022/05/12 13:30:16;;;;;;;5.23;1.67;;;31.70;1.00;;;;;;5078268;28;20478;-79
2022/05/12 13:32:48;;;;;;;5.60;1.90;;;33.30;1.00;;;;;;5073258;28;20427;-79
2022/05/12 13:35:26;;;;;;;5.90;2.23;;;33.20;1.00;;;;;;5069973;28;20416;-79
2022/05/12 13:38:06;;;;;;;6.07;2.10;;;32.70;1.00;;;;;;5080000;28;20466;-79
2022/05/12 13:40:55;;;;;;;6.23;1.40;;;33.70;1.00;;;;;;5069470;28;20477;-80
2022/05/12 13:43:33;;;;;;;6.43;1.20;;;34.60;1.00;;;;;;5076388;28;20432;-79
2022/05/12 13:46:08;;;;;;;5.53;1.20;;;34.20;1.00;;;;;;5073585;28;20429;-79
2022/05/12 13:48:57;;;;;;;5.80;1.30;;;32.70;1.00;;;;;;5077159;28;20475;-81
2022/05/12 13:51:47;;;;;;;5.30;1.07;;;33.30;1.00;;;;;;5058379;28;20448;-81
2022/05/12 13:54:28;;;;;;;8.00;1.30;;;33.90;1.00;;;;;;5075121;28;20474;-79
2022/05/12 13:57:17;;;;;;;5.83;0.90;;;33.50;1.00;;;;;;5069031;28;20431;-80
2022/05/12 13:59:57;;;;;;;6.27;1.63;;;33.60;1.00;;;;;;5077249;28;20419;-80
2022/05/12 14:02:37;;;;;;;6.33;1.00;;;33.30;1.00;;;;;;5073763;28;20419;-78
2022/05/12 14:05:21;;;;;;;6.33;1.83;;;33.40;1.00;;;;;;5074320;28;20439;-79
2022/05/12 14:08:06;;;;;;;5.60;1.50;;;33.70;1.00;;;;;;5074021;28;20447;-79
2022/05/12 14:10:38;;;;;;;7.50;1.70;;;32.70;1.00;;;;;;5079726;28;20559;-79
2022/05/12 14:21:35;;;;;;;5.57;1.30;;;31.40;1.00;;;;;;5072052;28;20487;-81
2022/05/12 14:24:06;;;;;;;6.20;1.30;;;30.70;1.00;;;;;;5072380;28;20457;-80
2022/05/12 14:26:37;;;;;;;6.00;1.33;;;29.60;1.00;;;;;;5080200;28;20521;-79
2022/05/12 14:29:06;;;;;;;8.73;2.57;;;29.10;1.00;;;;;;5077652;28;20411;-80
2022/05/12 14:31:36;;;;;;;5.70;2.03;;;28.40;1.00;;;;;;5081167;28;20435;-79